Time;durP1;ratioP1;P1;durP2;ratioP2;P2;SDS_P1;SDS_P2;PMS_P1;PMS_P2;Temp;Humidity;BMP_temperature;BMP_pressure;BME280_temperature;BME280_humidity;BME280_pressure;Samples;Min_cycle;Max_cycle;Signal;HPM_P1;HPM_P2
2022/06/24 00:00:15;;;;;;;;;;;;;;;;;;4982796;28;20015;-59
2022/06/24 00:02:43;;;;;;;;;;;;;;;;;;4981634;28;19936;-59
2022/06/24 00:05:11;;;;;;;;;;;;;;;;;;4973782;28;19987;-60
2022/06/24 00:07:36;;;;;;;;;;;;;;;;;;4978279;28;19925;-60
2022/06/24 00:10:01;;;;;;;;;;;;;;;;;;4979205;28;21986;-59
2022/06/24 00:12:27;;;;;;;;;;;;;;;;;;4974314;28;19922;-59
2022/06/24 00:14:54;;;;;;;;;;;;;;;;;;4976912;28;19921;-60
2022/06/24 00:17:20;;;;;;;;;;;;;;;;;;4980377;28;19921;-60
2022/06/24 00:19:47;;;;;;;;;;;;;;;;;;4980627;28;20004;-60
2022/06/24 00:22:12;;;;;;;;;;;;;;;;;;4980593;28;20059;-60
2022/06/24 00:24:38;;;;;;;;;;;;;;;;;;4975069;28;20997;-60
2022/06/24 00:27:06;;;;;;;;;;;;;;;;;;4979308;28;19926;-60
2022/06/24 00:29:36;;;;;;;;;;;;;;;;;;4994482;28;19922;-60
2022/06/24 00:32:06;;;;;;;;;;;;;;;;;;4993855;28;19958;-59
2022/06/24 00:34:31;;;;;;;;;;;;;;;;;;4976907;28;19921;-59
2022/06/24 00:36:58;;;;;;;;;;;;;;;;;;4972338;28;19968;-59
2022/06/24 00:39:24;;;;;;;;;;;;;;;;;;4971986;28;21296;-59
2022/06/24 00:41:51;;;;;;;;;;;;;;;;;;4975949;28;19968;-59
2022/06/24 00:44:19;;;;;;;;;;;;;;;;;;4960704;28;19922;-59
2022/06/24 00:46:49;;;;;;;;;;;;;;;;;;4956510;28;19922;-59
2022/06/24 00:49:14;;;;;;;;;;;;;;;;;;4956853;28;20063;-59
2022/06/24 00:55:00;;;;;;;;;;;;;;;;;;4970333;28;20284;-59
2022/06/24 00:57:25;;;;;;;;;;;;;;;;;;4965734;28;21736;-59
2022/06/24 00:59:53;;;;;;;;;;;;;;;;;;4962388;28;19921;-59
2022/06/24 01:02:21;;;;;;;;;;;;;;;;;;4960834;28;19926;-59
2022/06/24 01:04:48;;;;;;;;;;;;;;;;;;4965007;28;19922;-59
2022/06/24 01:07:17;;;;;;;;;;;;;;;;;;4968395;28;20946;-59
2022/06/24 01:09:44;;;;;;;;;;;;;;;;;;4963891;28;20027;-59
2022/06/24 01:12:11;;;;;;;;;;;;;;;;;;4968191;28;20451;-59
2022/06/24 01:14:36;;;;;;;;;;;;;;;;;;4960879;28;19917;-60
2022/06/24 01:17:02;;;;;;;;;;;;;;;;;;4968149;28;19922;-60
2022/06/24 01:19:29;;;;;;;;;;;;;;;;;;4945425;28;20020;-60
2022/06/24 01:21:57;;;;;;;;;;;;;;;;;;4966040;28;19932;-60
2022/06/24 01:24:22;;;;;;;;;;;;;;;;;;4962368;28;19921;-60
2022/06/24 01:26:48;;;;;;;;;;;;;;;;;;4961860;28;19952;-60
2022/06/24 01:29:14;;;;;;;;;;;;;;;;;;4960499;28;21852;-58
2022/06/24 01:31:42;;;;;;;;;;;;;;;;;;4963378;28;19917;-59
2022/06/24 01:34:07;;;;;;;;;;;;;;;;;;4962099;28;19918;-59
2022/06/24 01:36:35;;;;;;;;;;;;;;;;;;4967727;28;19921;-58
2022/06/24 01:39:00;;;;;;;;;;;;;;;;;;4959891;28;20506;-59
2022/06/24 01:41:25;;;;;;;;;;;;;;;;;;4963398;28;21716;-58
2022/06/24 01:43:53;;;;;;;;;;;;;;;;;;4952942;28;19924;-59
2022/06/24 01:46:21;;;;;;;;;;;;;;;;;;4970961;28;19924;-58
2022/06/24 01:48:49;;;;;;;;;;;;;;;;;;4967146;28;20016;-58
2022/06/24 01:51:14;;;;;;;;;;;;;;;;;;4964884;28;20316;-58
2022/06/24 01:53:40;;;;;;;;;;;;;;;;;;4968828;28;20284;-59
2022/06/24 01:56:05;;;;;;;;;;;;;;;;;;4972014;28;19922;-59
2022/06/24 01:58:33;;;;;;;;;;;;;;;;;;4958257;28;19926;-58
2022/06/24 02:00:58;;;;;;;;;;;;;;;;;;4960630;28;20427;-56
2022/06/24 02:03:26;;;;;;;;;;;;;;;;;;4962409;28;20025;-59
2022/06/24 02:05:54;;;;;;;;;;;;;;;;;;4961353;28;19932;-59
2022/06/24 02:08:21;;;;;;;;;;;;;;;;;;4961727;28;19925;-59
2022/06/24 02:13:31;;;;;;;;;;;;;;;;;;4953738;28;19972;-59
2022/06/24 02:15:58;;;;;;;;;;;;;;;;;;4945784;28;20005;-58
2022/06/24 02:18:24;;;;;;;;;;;;;;;;;;4971010;28;19944;-58
2022/06/24 02:20:49;;;;;;;;;;;;;;;;;;4970159;28;20009;-59
2022/06/24 02:23:18;;;;;;;;;;;;;;;;;;4972132;28;19926;-59
2022/06/24 02:25:43;;;;;;;;;;;;;;;;;;4973046;28;19922;-59
2022/06/24 02:28:11;;;;;;;;;;;;;;;;;;4971937;28;19917;-59
2022/06/24 02:30:38;;;;;;;;;;;;;;;;;;4970220;28;19933;-58
2022/06/24 02:33:04;;;;;;;;;;;;;;;;;;4957864;28;20463;-58
2022/06/24 02:35:29;;;;;;;;;;;;;;;;;;4975606;28;19917;-58
2022/06/24 02:37:55;;;;;;;;;;;;;;;;;;4969598;28;20040;-58
2022/06/24 02:43:24;;;;;;;;;;;;;;;;;;4893758;29;19926;-59
2022/06/24 02:45:49;;;;;;;;;;;;;;;;;;4955823;28;20382;-59
2022/06/24 02:48:14;;;;;;;;;;;;;;;;;;4969779;28;19921;-59
2022/06/24 02:50:42;;;;;;;;;;;;;;;;;;4968756;28;21386;-59
2022/06/24 02:53:10;;;;;;;;;;;;;;;;;;4984789;28;19933;-59
2022/06/24 02:55:35;;;;;;;;;;;;;;;;;;4968602;28;19922;-59
2022/06/24 02:58:04;;;;;;;;;;;;;;;;;;4970597;28;19925;-59
2022/06/24 03:00:31;;;;;;;;;;;;;;;;;;4966155;28;19995;-59
2022/06/24 03:02:59;;;;;;;;;;;;;;;;;;4971400;28;19926;-59
2022/06/24 03:05:27;;;;;;;;;;;;;;;;;;4969289;28;21296;-59
2022/06/24 03:07:57;;;;;;;;;;;;;;;;;;4968186;28;19922;-59
2022/06/24 03:10:22;;;;;;;;;;;;;;;;;;4966180;28;19928;-59
2022/06/24 03:12:48;;;;;;;;;;;;;;;;;;4970641;28;19921;-59
2022/06/24 03:15:13;;;;;;;;;;;;;;;;;;4970683;28;19918;-58
2022/06/24 03:17:41;;;;;;;;;;;;;;;;;;4970757;28;19922;-61
2022/06/24 03:20:09;;;;;;;;;;;;;;;;;;4946077;28;20002;-58
2022/06/24 03:22:37;;;;;;;;;;;;;;;;;;4955592;28;19929;-58
2022/06/24 03:25:02;;;;;;;;;;;;;;;;;;4968180;28;19929;-59
2022/06/24 03:27:28;;;;;;;;;;;;;;;;;;4971980;28;19917;-59
2022/06/24 03:29:58;;;;;;;;;;;;;;;;;;4951129;28;20011;-59
2022/06/24 03:32:23;;;;;;;;;;;;;;;;;;4970643;28;20320;-59
2022/06/24 03:34:48;;;;;;;;;;;;;;;;;;4969437;28;19926;-59
2022/06/24 03:37:14;;;;;;;;;;;;;;;;;;4972068;28;19921;-59
2022/06/24 03:39:42;;;;;;;;;;;;;;;;;;4943356;28;19933;-60
2022/06/24 03:42:12;;;;;;;;;;;;;;;;;;4970484;28;19963;-60
2022/06/24 03:44:40;;;;;;;;;;;;;;;;;;4960708;28;19922;-59
2022/06/24 03:47:05;;;;;;;;;;;;;;;;;;4965816;28;19933;-59
2022/06/24 03:49:33;;;;;;;;;;;;;;;;;;4969009;28;20016;-59
2022/06/24 03:51:58;;;;;;;;;;;;;;;;;;4973157;28;19928;-58
2022/06/24 03:54:25;;;;;;;;;;;;;;;;;;4977146;28;19922;-60
2022/06/24 03:56:51;;;;;;;;;;;;;;;;;;4973016;28;19933;-58
2022/06/24 03:59:18;;;;;;;;;;;;;;;;;;4976167;28;20372;-59
2022/06/24 04:01:46;;;;;;;;;;;;;;;;;;4975367;28;19929;-59
2022/06/24 04:04:11;;;;;;;;;;;;;;;;;;4959467;28;19947;-59
2022/06/24 04:06:39;;;;;;;;;;;;;;;;;;4958912;28;19922;-58
2022/06/24 04:09:06;;;;;;;;;;;;;;;;;;4962628;28;19952;-59
2022/06/24 04:11:34;;;;;;;;;;;;;;;;;;4959035;28;20516;-60
2022/06/24 04:14:00;;;;;;;;;;;;;;;;;;4961835;28;19921;-58
2022/06/24 04:16:25;;;;;;;;;;;;;;;;;;4963378;28;19976;-58
2022/06/24 04:18:55;;;;;;;;;;;;;;;;;;4961585;28;20827;-60
2022/06/24 04:21:21;;;;;;;;;;;;;;;;;;4963272;28;19918;-60
2022/06/24 04:23:50;;;;;;;;;;;;;;;;;;4963308;28;19975;-60
2022/06/24 04:26:16;;;;;;;;;;;;;;;;;;4963398;28;19999;-60
2022/06/24 04:28:41;;;;;;;;;;;;;;;;;;4969209;28;20419;-60
2022/06/24 04:31:06;;;;;;;;;;;;;;;;;;4967772;28;20304;-60
2022/06/24 04:33:36;;;;;;;;;;;;;;;;;;4975385;28;19917;-59
2022/06/24 04:36:01;;;;;;;;;;;;;;;;;;4974224;28;19918;-61
2022/06/24 04:38:29;;;;;;;;;;;;;;;;;;4965740;28;19956;-59
2022/06/24 04:40:54;;;;;;;;;;;;;;;;;;4966412;28;19922;-59
2022/06/24 04:43:19;;;;;;;;;;;;;;;;;;4971547;28;19945;-59
2022/06/24 04:45:47;;;;;;;;;;;;;;;;;;4972601;28;20016;-59
2022/06/24 04:48:18;;;;;;;;;;;;;;;;;;4970996;28;19968;-58
2022/06/24 04:50:46;;;;;;;;;;;;;;;;;;4975075;28;19925;-60
2022/06/24 04:53:11;;;;;;;;;;;;;;;;;;4974424;28;20309;-58
2022/06/24 04:55:41;;;;;;;;;;;;;;;;;;4973822;28;19921;-60
2022/06/24 04:58:09;;;;;;;;;;;;;;;;;;4974876;28;19922;-60
2022/06/24 05:00:34;;;;;;;;;;;;;;;;;;4956648;28;19999;-60
2022/06/24 05:03:02;;;;;;;;;;;;;;;;;;4976300;28;20032;-60
2022/06/24 05:05:32;;;;;;;;;;;;;;;;;;4970437;28;20099;-59
2022/06/24 05:08:00;;;;;;;;;;;;;;;;;;4972854;28;20600;-59
2022/06/24 05:10:25;;;;;;;;;;;;;;;;;;4965038;28;19926;-59
2022/06/24 05:12:51;;;;;;;;;;;;;;;;;;4968348;28;21200;-59
2022/06/24 05:15:16;;;;;;;;;;;;;;;;;;4969350;28;19918;-59
2022/06/24 05:17:41;;;;;;;;;;;;;;;;;;4966656;28;20036;-59
2022/06/24 05:20:09;;;;;;;;;;;;;;;;;;4970302;28;20462;-59
2022/06/24 05:22:34;;;;;;;;;;;;;;;;;;4971016;28;19932;-60
2022/06/24 05:25:06;;;;;;;;;;;;;;;;;;4968664;28;19922;-60
2022/06/24 05:27:32;;;;;;;;;;;;;;;;;;4972384;28;20276;-59
2022/06/24 05:30:02;;;;;;;;;;;;;;;;;;4969474;28;20492;-60
2022/06/24 05:32:28;;;;;;;;;;;;;;;;;;4976278;28;20034;-59
2022/06/24 05:34:53;;;;;;;;;;;;;;;;;;4979211;28;19926;-59
2022/06/24 05:37:18;;;;;;;;;;;;;;;;;;4976300;28;21948;-58
2022/06/24 05:39:44;;;;;;;;;;;;;;;;;;4967692;28;19918;-59
2022/06/24 05:42:12;;;;;;;;;;;;;;;;;;4967184;28;19937;-59
2022/06/24 05:44:37;;;;;;;;;;;;;;;;;;4972433;28;19928;-58
2022/06/24 05:47:02;;;;;;;;;;;;;;;;;;4973389;28;19952;-59
2022/06/24 05:49:27;;;;;;;;;;;;;;;;;;4966667;28;20847;-59
2022/06/24 05:51:53;;;;;;;;;;;;;;;;;;4972474;28;19933;-59
2022/06/24 05:57:09;;;;;;;;;;;;;;;;;;4972118;28;19917;-59
2022/06/24 05:59:37;;;;;;;;;;;;;;;;;;4970535;28;19921;-58
2022/06/24 06:02:06;;;;;;;;;;;;;;;;;;4981503;28;20016;-58
2022/06/24 06:04:34;;;;;;;;;;;;;;;;;;4978970;28;20038;-58
2022/06/24 06:06:59;;;;;;;;;;;;;;;;;;4975350;28;20056;-59
2022/06/24 06:09:25;;;;;;;;;;;;;;;;;;4970751;28;20007;-60
2022/06/24 06:11:51;;;;;;;;;;;;;;;;;;4974284;28;19933;-59
2022/06/24 06:14:18;;;;;;;;;;;;;;;;;;4971449;28;20393;-58
2022/06/24 06:16:47;;;;;;;;;;;;;;;;;;4971959;28;19952;-59
2022/06/24 06:19:12;;;;;;;;;;;;;;;;;;4981972;28;19922;-58
2022/06/24 06:21:39;;;;;;;;;;;;;;;;;;4970618;28;19928;-60
2022/06/24 06:24:05;;;;;;;;;;;;;;;;;;4968748;28;20567;-61
2022/06/24 06:26:35;;;;;;;;;;;;;;;;;;4962245;28;20036;-60
2022/06/24 06:29:01;;;;;;;;;;;;;;;;;;4965967;28;19985;-66
2022/06/24 06:31:27;;;;;;;;;;;;;;;;;;4966434;28;19921;-63
2022/06/24 06:33:52;;;;;;;;;;;;;;;;;;4973285;28;19930;-60
2022/06/24 06:36:17;;;;;;;;;;;;;;;;;;4977761;28;19922;-59
2022/06/24 06:38:43;;;;;;;;;;;;;;;;;;4958375;28;19933;-59
2022/06/24 06:41:08;;;;;;;;;;;;;;;;;;4970649;28;19921;-58
2022/06/24 06:43:34;;;;;;;;;;;;;;;;;;4973036;28;19930;-58
2022/06/24 06:45:59;;;;;;;;;;;;;;;;;;4970868;28;20380;-58
2022/06/24 06:48:25;;;;;;;;;;;;;;;;;;4969780;28;19984;-58
2022/06/24 06:50:52;;;;;;;;;;;;;;;;;;4964372;28;19957;-59
2022/06/24 06:53:21;;;;;;;;;;;;;;;;;;4971733;28;19927;-57
2022/06/24 06:55:46;;;;;;;;;;;;;;;;;;4970554;28;19953;-58
2022/06/24 06:58:14;;;;;;;;;;;;;;;;;;4968902;28;20374;-57
2022/06/24 07:00:39;;;;;;;;;;;;;;;;;;4973057;28;19918;-58
2022/06/24 07:03:05;;;;;;;;;;;;;;;;;;4969824;28;20308;-58
2022/06/24 07:05:32;;;;;;;;;;;;;;;;;;4971242;28;20016;-58
2022/06/24 07:07:58;;;;;;;;;;;;;;;;;;4970070;28;20124;-59
2022/06/24 07:10:24;;;;;;;;;;;;;;;;;;4967785;28;20032;-58
2022/06/24 07:12:49;;;;;;;;;;;;;;;;;;4971807;28;20035;-59
2022/06/24 07:15:16;;;;;;;;;;;;;;;;;;4970202;28;20718;-59
2022/06/24 07:17:44;;;;;;;;;;;;;;;;;;4965417;28;20056;-59
2022/06/24 07:20:11;;;;;;;;;;;;;;;;;;4967727;28;19917;-58
2022/06/24 07:22:39;;;;;;;;;;;;;;;;;;4968812;28;19922;-58
2022/06/24 07:25:05;;;;;;;;;;;;;;;;;;4960031;28;22037;-58
2022/06/24 07:27:30;;;;;;;;;;;;;;;;;;4963988;28;19918;-58
2022/06/24 07:29:56;;;;;;;;;;;;;;;;;;4963643;28;20825;-57
2022/06/24 07:32:23;;;;;;;;;;;;;;;;;;4963286;28;19930;-55
2022/06/24 07:34:51;;;;;;;;;;;;;;;;;;4967992;28;19917;-58
2022/06/24 07:37:17;;;;;;;;;;;;;;;;;;4976238;28;19929;-57
2022/06/24 07:39:42;;;;;;;;;;;;;;;;;;4968796;28;19926;-58
2022/06/24 07:42:07;;;;;;;;;;;;;;;;;;4966711;28;20053;-57
2022/06/24 07:44:33;;;;;;;;;;;;;;;;;;4968832;28;19922;-58
2022/06/24 07:47:04;;;;;;;;;;;;;;;;;;4968690;28;19918;-58
2022/06/24 07:49:29;;;;;;;;;;;;;;;;;;4967134;28;20344;-57
2022/06/24 07:51:57;;;;;;;;;;;;;;;;;;4969247;28;20339;-57
2022/06/24 07:54:27;;;;;;;;;;;;;;;;;;4969197;28;21511;-58
2022/06/24 07:57:01;;;;;;;;;;;;;;;;;;4966624;28;20368;-58
2022/06/24 07:59:27;;;;;;;;;;;;;;;;;;4962461;28;19935;-58
2022/06/24 08:01:52;;;;;;;;;;;;;;;;;;4971297;28;19917;-58
2022/06/24 08:04:20;;;;;;;;;;;;;;;;;;4975889;28;19957;-58
2022/06/24 08:06:50;;;;;;;;;;;;;;;;;;4973385;28;19928;-58
2022/06/24 08:09:15;;;;;;;;;;;;;;;;;;4975997;28;19922;-59
2022/06/24 08:11:41;;;;;;;;;;;;;;;;;;4972036;28;19917;-58
2022/06/24 08:14:06;;;;;;;;;;;;;;;;;;4974019;28;20064;-58
2022/06/24 08:16:36;;;;;;;;;;;;;;;;;;4968233;28;20008;-59
2022/06/24 08:19:02;;;;;;;;;;;;;;;;;;4971620;28;19917;-58
2022/06/24 08:21:27;;;;;;;;;;;;;;;;;;4967215;28;20502;-58
2022/06/24 08:23:53;;;;;;;;;;;;;;;;;;4966748;28;19926;-58
2022/06/24 08:26:18;;;;;;;;;;;;;;;;;;4968448;28;20058;-58
2022/06/24 08:28:43;;;;;;;;;;;;;;;;;;4968259;28;19928;-59
2022/06/24 08:31:11;;;;;;;;;;;;;;;;;;4966455;28;21757;-59
2022/06/24 08:33:39;;;;;;;;;;;;;;;;;;4973789;28;19917;-58
2022/06/24 08:36:07;;;;;;;;;;;;;;;;;;4972328;28;19957;-59
2022/06/24 08:38:39;;;;;;;;;;;;;;;;;;4973043;28;19918;-59
2022/06/24 08:41:05;;;;;;;;;;;;;;;;;;4968204;28;20380;-59
2022/06/24 08:43:30;;;;;;;;;;;;;;;;;;4954021;28;19925;-58
2022/06/24 08:45:58;;;;;;;;;;;;;;;;;;4966123;28;19968;-58
2022/06/24 08:48:24;;;;;;;;;;;;;;;;;;4969256;28;19991;-57
2022/06/24 08:50:52;;;;;;;;;;;;;;;;;;4968737;28;19922;-57
2022/06/24 08:53:17;;;;;;;;;;;;;;;;;;4967007;28;20657;-57
2022/06/24 08:55:48;;;;;;;;;;;;;;;;;;4973119;28;19979;-58
2022/06/24 08:58:14;;;;;;;;;;;;;;;;;;4973191;28;19921;-58
2022/06/24 09:00:44;;;;;;;;;;;;;;;;;;4969636;28;19969;-58
2022/06/24 09:03:10;;;;;;;;;;;;;;;;;;4971251;28;19933;-59
2022/06/24 09:05:36;;;;;;;;;;;;;;;;;;4967903;28;19921;-58
2022/06/24 09:08:04;;;;;;;;;;;;;;;;;;4976579;28;20332;-58
2022/06/24 09:10:32;;;;;;;;;;;;;;;;;;4960937;28;19980;-58
2022/06/24 09:13:00;;;;;;;;;;;;;;;;;;4970740;28;19925;-58
2022/06/24 09:15:26;;;;;;;;;;;;;;;;;;4971219;28;19929;-58
2022/06/24 09:17:54;;;;;;;;;;;;;;;;;;4965679;28;19932;-58
2022/06/24 09:20:19;;;;;;;;;;;;;;;;;;4966366;28;19969;-58
2022/06/24 09:22:47;;;;;;;;;;;;;;;;;;4972674;28;20025;-58
2022/06/24 09:25:12;;;;;;;;;;;;;;;;;;4974238;28;19929;-59
2022/06/24 09:27:40;;;;;;;;;;;;;;;;;;4968525;28;19965;-60
2022/06/24 09:30:05;;;;;;;;;;;;;;;;;;4970120;28;19918;-60
2022/06/24 09:32:33;;;;;;;;;;;;;;;;;;4973813;28;19976;-61
2022/06/24 09:35:00;;;;;;;;;;;;;;;;;;4970816;28;20012;-61
2022/06/24 09:37:26;;;;;;;;;;;;;;;;;;4973279;28;19917;-60
2022/06/24 09:39:53;;;;;;;;;;;;;;;;;;4980397;28;19922;-60
2022/06/24 09:42:18;;;;;;;;;;;;;;;;;;4975424;28;19936;-61
2022/06/24 09:44:44;;;;;;;;;;;;;;;;;;4968955;28;19964;-60
2022/06/24 09:47:10;;;;;;;;;;;;;;;;;;4972130;28;19929;-60
2022/06/24 09:49:35;;;;;;;;;;;;;;;;;;4971922;28;19917;-60
2022/06/24 09:52:08;;;;;;;;;;;;;;;;;;4971507;28;20706;-63
2022/06/24 09:54:33;;;;;;;;;;;;;;;;;;4983894;28;19941;-61
2022/06/24 09:57:01;;;;;;;;;;;;;;;;;;4952976;28;20008;-60
2022/06/24 10:02:10;;;;;;;;;;;;;;;;;;4974392;28;20051;-60
2022/06/24 10:04:36;;;;;;;;;;;;;;;;;;4969163;28;20397;-60
2022/06/24 10:07:03;;;;;;;;;;;;;;;;;;4968532;28;19956;-59
2022/06/24 10:09:31;;;;;;;;;;;;;;;;;;4973095;28;19932;-60
2022/06/24 10:11:56;;;;;;;;;;;;;;;;;;4974177;28;19922;-59
2022/06/24 10:14:23;;;;;;;;;;;;;;;;;;4959577;28;19928;-60
2022/06/24 10:16:49;;;;;;;;;;;;;;;;;;4978245;28;19922;-59
2022/06/24 10:19:16;;;;;;;;;;;;;;;;;;4961412;28;19953;-59
2022/06/24 10:21:44;;;;;;;;;;;;;;;;;;4978461;28;20369;-59
2022/06/24 10:24:12;;;;;;;;;;;;;;;;;;4975209;28;20319;-60
2022/06/24 10:26:42;;;;;;;;;;;;;;;;;;4974167;28;19917;-60
2022/06/24 10:29:08;;;;;;;;;;;;;;;;;;4980205;28;19917;-59
2022/06/24 10:31:35;;;;;;;;;;;;;;;;;;4976782;28;20619;-60
2022/06/24 10:34:03;;;;;;;;;;;;;;;;;;4975559;28;19957;-60
2022/06/24 10:36:28;;;;;;;;;;;;;;;;;;4977932;28;20045;-60
2022/06/24 10:38:55;;;;;;;;;;;;;;;;;;4953722;28;20012;-60
2022/06/24 10:41:23;;;;;;;;;;;;;;;;;;4975042;28;19917;-61
2022/06/24 10:43:53;;;;;;;;;;;;;;;;;;4972555;28;19932;-61
2022/06/24 10:46:23;;;;;;;;;;;;;;;;;;4952183;28;19933;-63
2022/06/24 10:48:49;;;;;;;;;;;;;;;;;;4972839;28;20780;-62
2022/06/24 10:51:14;;;;;;;;;;;;;;;;;;4967905;28;19937;-61
2022/06/24 10:53:40;;;;;;;;;;;;;;;;;;4986941;28;19929;-61
2022/06/24 10:56:05;;;;;;;;;;;;;;;;;;4970664;28;19922;-61
2022/06/24 10:58:31;;;;;;;;;;;;;;;;;;4969532;28;21864;-62
2022/06/24 11:00:56;;;;;;;;;;;;;;;;;;4972377;28;19921;-63
2022/06/24 11:03:25;;;;;;;;;;;;;;;;;;4971948;28;19968;-61
2022/06/24 11:05:51;;;;;;;;;;;;;;;;;;4967857;28;20349;-61
2022/06/24 11:08:16;;;;;;;;;;;;;;;;;;4975469;28;19925;-61
2022/06/24 11:10:41;;;;;;;;;;;;;;;;;;4966690;28;20005;-61
2022/06/24 11:13:07;;;;;;;;;;;;;;;;;;4967864;28;19926;-61
2022/06/24 11:15:32;;;;;;;;;;;;;;;;;;4951400;28;19929;-60
2022/06/24 11:17:59;;;;;;;;;;;;;;;;;;4969031;28;19918;-60
2022/06/24 11:20:25;;;;;;;;;;;;;;;;;;4972097;28;19929;-59
2022/06/24 11:22:50;;;;;;;;;;;;;;;;;;4968359;28;19968;-61
2022/06/24 11:25:15;;;;;;;;;;;;;;;;;;4970455;28;19927;-61
2022/06/24 11:27:43;;;;;;;;;;;;;;;;;;4969597;28;20877;-62
2022/06/24 11:30:11;;;;;;;;;;;;;;;;;;4968069;28;19925;-62
2022/06/24 11:32:37;;;;;;;;;;;;;;;;;;4968897;28;19926;-61
2022/06/24 11:35:04;;;;;;;;;;;;;;;;;;4962077;28;21880;-60
2022/06/24 11:37:29;;;;;;;;;;;;;;;;;;4953377;28;19921;-61
2022/06/24 11:39:58;;;;;;;;;;;;;;;;;;4965543;28;20641;-62
2022/06/24 11:42:23;;;;;;;;;;;;;;;;;;4966587;28;19933;-62
2022/06/24 11:44:51;;;;;;;;;;;;;;;;;;4964137;28;19928;-64
2022/06/24 11:47:16;;;;;;;;;;;;;;;;;;4970168;28;19926;-60
2022/06/24 11:49:44;;;;;;;;;;;;;;;;;;4967744;28;19922;-60
2022/06/24 11:52:14;;;;;;;;;;;;;;;;;;4964318;28;19948;-60
2022/06/24 11:54:39;;;;;;;;;;;;;;;;;;4976265;28;19924;-61
2022/06/24 11:57:05;;;;;;;;;;;;;;;;;;4960579;28;21503;-61
2022/06/24 11:59:34;;;;;;;;;;;;;;;;;;4964031;28;21887;-60
2022/06/24 12:02:04;;;;;;;;;;;;;;;;;;4968107;28;22048;-61
2022/06/24 12:04:34;;;;;;;;;;;;;;;;;;4966087;28;20459;-61
2022/06/24 12:06:59;;;;;;;;;;;;;;;;;;4965925;28;19969;-61
2022/06/24 12:09:25;;;;;;;;;;;;;;;;;;4949169;28;19921;-60
2022/06/24 12:11:53;;;;;;;;;;;;;;;;;;4968223;28;19949;-61
2022/06/24 12:14:22;;;;;;;;;;;;;;;;;;4970830;28;20008;-61
2022/06/24 12:16:49;;;;;;;;;;;;;;;;;;4965990;28;19921;-61
2022/06/24 12:19:17;;;;;;;;;;;;;;;;;;4960618;28;19921;-60
2022/06/24 12:21:45;;;;;;;;;;;;;;;;;;4963732;28;21772;-61
2022/06/24 12:24:13;;;;;;;;;;;;;;;;;;4968501;28;20024;-61
2022/06/24 12:26:41;;;;;;;;;;;;;;;;;;4962288;28;19926;-60
2022/06/24 12:29:06;;;;;;;;;;;;;;;;;;4959071;28;19933;-61
2022/06/24 12:31:31;;;;;;;;;;;;;;;;;;4963314;28;19956;-61
2022/06/24 12:34:00;;;;;;;;;;;;;;;;;;4981139;28;19937;-61
2022/06/24 12:36:28;;;;;;;;;;;;;;;;;;4967882;28;20391;-61
2022/06/24 12:38:53;;;;;;;;;;;;;;;;;;4965736;28;19918;-62
2022/06/24 12:41:19;;;;;;;;;;;;;;;;;;4957597;28;19968;-62
2022/06/24 12:43:46;;;;;;;;;;;;;;;;;;4966648;28;19930;-62
2022/06/24 12:46:12;;;;;;;;;;;;;;;;;;4962875;28;19957;-62
2022/06/24 12:51:24;;;;;;;;;;;;;;;;;;4964636;28;19922;-62
2022/06/24 12:53:50;;;;;;;;;;;;;;;;;;4971088;28;20846;-61
2022/06/24 12:56:15;;;;;;;;;;;;;;;;;;4966139;28;19929;-61
2022/06/24 12:58:40;;;;;;;;;;;;;;;;;;4964540;28;19921;-61
2022/06/24 13:01:08;;;;;;;;;;;;;;;;;;4966179;28;19968;-61
2022/06/24 13:03:37;;;;;;;;;;;;;;;;;;4964965;28;19925;-60
2022/06/24 13:06:02;;;;;;;;;;;;;;;;;;4964303;28;19921;-61
2022/06/24 13:08:27;;;;;;;;;;;;;;;;;;4980014;28;21882;-60
2022/06/24 13:10:56;;;;;;;;;;;;;;;;;;4968409;28;19926;-60
2022/06/24 13:13:21;;;;;;;;;;;;;;;;;;4967943;28;19918;-60
2022/06/24 13:15:49;;;;;;;;;;;;;;;;;;4971756;28;20040;-60
2022/06/24 13:18:14;;;;;;;;;;;;;;;;;;4967688;28;19969;-60
2022/06/24 13:20:42;;;;;;;;;;;;;;;;;;4963495;28;19921;-59
2022/06/24 13:23:10;;;;;;;;;;;;;;;;;;4968844;28;19932;-59
2022/06/24 13:25:37;;;;;;;;;;;;;;;;;;4965598;28;19922;-58
2022/06/24 13:28:07;;;;;;;;;;;;;;;;;;4975594;28;19921;-58
2022/06/24 13:30:35;;;;;;;;;;;;;;;;;;4972453;28;19921;-59
2022/06/24 13:33:00;;;;;;;;;;;;;;;;;;4970981;28;19987;-58
2022/06/24 13:35:25;;;;;;;;;;;;;;;;;;4967564;28;21801;-58
2022/06/24 13:37:53;;;;;;;;;;;;;;;;;;4969818;28;19918;-59
2022/06/24 13:40:20;;;;;;;;;;;;;;;;;;4964417;28;20116;-59
2022/06/24 13:42:50;;;;;;;;;;;;;;;;;;4957666;28;19933;-58
2022/06/24 13:45:18;;;;;;;;;;;;;;;;;;4973061;28;20438;-58
2022/06/24 13:47:43;;;;;;;;;;;;;;;;;;4961651;28;19928;-58
2022/06/24 13:50:09;;;;;;;;;;;;;;;;;;4972867;28;19922;-59
2022/06/24 13:52:37;;;;;;;;;;;;;;;;;;4975972;28;20405;-58
2022/06/24 13:55:05;;;;;;;;;;;;;;;;;;4975378;28;20036;-60
2022/06/24 13:57:32;;;;;;;;;;;;;;;;;;4977386;28;19921;-59
2022/06/24 14:00:00;;;;;;;;;;;;;;;;;;4977563;28;19924;-59
2022/06/24 14:02:26;;;;;;;;;;;;;;;;;;4955582;28;20497;-59
2022/06/24 14:04:52;;;;;;;;;;;;;;;;;;4967595;28;19921;-58
2022/06/24 14:07:20;;;;;;;;;;;;;;;;;;4972633;28;20012;-58
2022/06/24 14:09:48;;;;;;;;;;;;;;;;;;4971530;28;21895;-58
2022/06/24 14:12:14;;;;;;;;;;;;;;;;;;4966154;28;19925;-58
2022/06/24 14:14:40;;;;;;;;;;;;;;;;;;4974906;28;21483;-57
2022/06/24 14:17:10;;;;;;;;;;;;;;;;;;4962457;28;20064;-60
2022/06/24 14:19:38;;;;;;;;;;;;;;;;;;4964830;28;19932;-58
2022/06/24 14:22:08;;;;;;;;;;;;;;;;;;4961663;28;19925;-58
2022/06/24 14:24:34;;;;;;;;;;;;;;;;;;4970768;28;21979;-58
2022/06/24 14:27:02;;;;;;;;;;;;;;;;;;4969219;28;19924;-59
2022/06/24 14:29:28;;;;;;;;;;;;;;;;;;4972127;28;19940;-59
2022/06/24 14:31:55;;;;;;;;;;;;;;;;;;4970079;28;19921;-59
2022/06/24 14:34:21;;;;;;;;;;;;;;;;;;4965899;28;20371;-59
2022/06/24 14:36:49;;;;;;;;;;;;;;;;;;4965733;28;19968;-60
2022/06/24 14:42:01;;;;;;;;;;;;;;;;;;4970714;28;20071;-59
2022/06/24 14:44:28;;;;;;;;;;;;;;;;;;4959225;28;20424;-58
2022/06/24 14:46:54;;;;;;;;;;;;;;;;;;4972884;28;20534;-60
2022/06/24 14:49:19;;;;;;;;;;;;;;;;;;4958290;28;20004;-60
2022/06/24 14:51:45;;;;;;;;;;;;;;;;;;4961306;28;20408;-59
2022/06/24 14:54:10;;;;;;;;;;;;;;;;;;4961143;28;20401;-59
2022/06/24 14:56:35;;;;;;;;;;;;;;;;;;4962849;28;19967;-60
2022/06/24 14:59:01;;;;;;;;;;;;;;;;;;4950138;28;19928;-61
2022/06/24 15:01:26;;;;;;;;;;;;;;;;;;4971661;28;21197;-59
2022/06/24 15:03:51;;;;;;;;;;;;;;;;;;4967751;28;19976;-59
2022/06/24 15:06:17;;;;;;;;;;;;;;;;;;4966488;28;19926;-60
2022/06/24 15:08:42;;;;;;;;;;;;;;;;;;4964544;28;19921;-60
2022/06/24 15:11:08;;;;;;;;;;;;;;;;;;4971518;28;19921;-61
2022/06/24 15:13:38;;;;;;;;;;;;;;;;;;4969099;28;19972;-61
2022/06/24 15:16:08;;;;;;;;;;;;;;;;;;4967492;28;19926;-61
2022/06/24 15:18:36;;;;;;;;;;;;;;;;;;4952340;28;20001;-60
2022/06/24 15:21:02;;;;;;;;;;;;;;;;;;4969895;28;19924;-61
2022/06/24 15:23:29;;;;;;;;;;;;;;;;;;4966418;28;19925;-61
2022/06/24 15:25:55;;;;;;;;;;;;;;;;;;4958569;28;20668;-59
2022/06/24 15:28:21;;;;;;;;;;;;;;;;;;4954413;28;19921;-60
2022/06/24 15:30:46;;;;;;;;;;;;;;;;;;4971831;28;19929;-61
2022/06/24 15:33:12;;;;;;;;;;;;;;;;;;4962679;28;19925;-60
2022/06/24 15:35:40;;;;;;;;;;;;;;;;;;4968682;28;20053;-59
2022/06/24 15:38:05;;;;;;;;;;;;;;;;;;4975560;28;19929;-60
2022/06/24 15:40:30;;;;;;;;;;;;;;;;;;4966313;28;19921;-60
2022/06/24 15:42:55;;;;;;;;;;;;;;;;;;4951664;28;20016;-60
2022/06/24 15:45:23;;;;;;;;;;;;;;;;;;4965910;28;19926;-61
2022/06/24 15:47:49;;;;;;;;;;;;;;;;;;4970975;28;19922;-61
2022/06/24 15:50:16;;;;;;;;;;;;;;;;;;4968333;28;20216;-60
2022/06/24 15:52:42;;;;;;;;;;;;;;;;;;4964882;28;19936;-61
2022/06/24 15:55:11;;;;;;;;;;;;;;;;;;4968673;28;19953;-60
2022/06/24 15:57:36;;;;;;;;;;;;;;;;;;4968696;28;19925;-59
2022/06/24 16:00:02;;;;;;;;;;;;;;;;;;4973747;28;19980;-59
2022/06/24 16:02:28;;;;;;;;;;;;;;;;;;4970148;28;20747;-59
2022/06/24 16:04:53;;;;;;;;;;;;;;;;;;4959763;28;19952;-60
2022/06/24 16:07:18;;;;;;;;;;;;;;;;;;4951826;28;19926;-59
2022/06/24 16:09:44;;;;;;;;;;;;;;;;;;4967765;28;19953;-61
2022/06/24 16:12:28;;;;;;;;;;;;;;;;;;4949157;28;19932;-59
2022/06/24 16:14:53;;;;;;;;;;;;;;;;;;4967623;28;20027;-60
2022/06/24 16:17:19;;;;;;;;;;;;;;;;;;4962914;28;20412;-60
2022/06/24 16:19:44;;;;;;;;;;;;;;;;;;4962231;28;19929;-60
2022/06/24 16:22:12;;;;;;;;;;;;;;;;;;4967406;28;19924;-60
2022/06/24 16:30:08;;;;;;;;;;;;;;;;;;4971179;28;19921;-60
2022/06/24 16:32:37;;;;;;;;;;;;;;;;;;4966115;28;19925;-60
2022/06/24 16:35:04;;;;;;;;;;;;;;;;;;4972931;28;19945;-60
2022/06/24 16:37:29;;;;;;;;;;;;;;;;;;4972239;28;19928;-60
2022/06/24 16:39:57;;;;;;;;;;;;;;;;;;4972868;28;20017;-60
2022/06/24 16:42:25;;;;;;;;;;;;;;;;;;4965967;28;19941;-60
2022/06/24 16:44:53;;;;;;;;;;;;;;;;;;4968278;28;20290;-59
2022/06/24 16:47:19;;;;;;;;;;;;;;;;;;4974400;28;20000;-60
2022/06/24 16:49:47;;;;;;;;;;;;;;;;;;4974021;28;21391;-59
2022/06/24 16:52:15;;;;;;;;;;;;;;;;;;4966583;28;19918;-61
2022/06/24 16:54:40;;;;;;;;;;;;;;;;;;4962470;28;19949;-61
2022/06/24 16:57:06;;;;;;;;;;;;;;;;;;4959828;28;20608;-59
2022/06/24 16:59:34;;;;;;;;;;;;;;;;;;4966493;28;19922;-60
2022/06/24 17:02:00;;;;;;;;;;;;;;;;;;4964710;28;20781;-61
2022/06/24 17:04:25;;;;;;;;;;;;;;;;;;4960733;28;20035;-60
2022/06/24 17:06:50;;;;;;;;;;;;;;;;;;4969028;28;19984;-60